sensor_id;sensor_type;location;lat;lon;timestamp;P1;durP1;ratioP1;P2;durP2;ratioP2
17917;SDS011;9084;50.956;3.106;2022-12-05T00:01:58;22.73;;;17.07;;
17917;SDS011;9084;50.956;3.106;2022-12-05T00:04:24;19.07;;;14.50;;
17917;SDS011;9084;50.956;3.106;2022-12-05T00:06:53;19.83;;;14.77;;
17917;SDS011;9084;50.956;3.106;2022-12-05T00:09:18;19.83;;;13.63;;
17917;SDS011;9084;50.956;3.106;2022-12-05T00:11:44;18.97;;;13.90;;
17917;SDS011;9084;50.956;3.106;2022-12-05T00:14:10;19.67;;;15.77;;
17917;SDS011;9084;50.956;3.106;2022-12-05T00:16:40;16.77;;;13.53;;
17917;SDS011;9084;50.956;3.106;2022-12-05T00:19:07;17.43;;;13.53;;
17917;SDS011;9084;50.956;3.106;2022-12-05T00:21:35;19.93;;;16.53;;
17917;SDS011;9084;50.956;3.106;2022-12-05T00:24:03;20.63;;;16.87;;
17917;SDS011;9084;50.956;3.106;2022-12-05T00:26:32;20.70;;;16.10;;
17917;SDS011;9084;50.956;3.106;2022-12-05T00:28:58;23.27;;;16.13;;
17917;SDS011;9084;50.956;3.106;2022-12-05T00:31:25;18.37;;;16.20;;
17917;SDS011;9084;50.956;3.106;2022-12-05T00:33:54;18.33;;;16.17;;
17917;SDS011;9084;50.956;3.106;2022-12-05T00:36:24;17.77;;;14.47;;
17917;SDS011;9084;50.956;3.106;2022-12-05T00:38:51;19.30;;;14.10;;
17917;SDS011;9084;50.956;3.106;2022-12-05T00:41:19;23.67;;;16.03;;
17917;SDS011;9084;50.956;3.106;2022-12-05T00:43:46;25.27;;;17.97;;
17917;SDS011;9084;50.956;3.106;2022-12-05T00:46:14;23.00;;;15.50;;
17917;SDS011;9084;50.956;3.106;2022-12-05T00:48:47;21.30;;;15.90;;
17917;SDS011;9084;50.956;3.106;2022-12-05T00:51:18;22.47;;;16.50;;
17917;SDS011;9084;50.956;3.106;2022-12-05T00:53:46;20.93;;;16.73;;
17917;SDS011;9084;50.956;3.106;2022-12-05T00:56:13;21.77;;;15.27;;
17917;SDS011;9084;50.956;3.106;2022-12-05T00:58:45;21.90;;;16.20;;
17917;SDS011;9084;50.956;3.106;2022-12-05T01:01:19;22.70;;;16.00;;
17917;SDS011;9084;50.956;3.106;2022-12-05T01:03:50;22.90;;;17.00;;
17917;SDS011;9084;50.956;3.106;2022-12-05T01:06:19;23.67;;;19.27;;
17917;SDS011;9084;50.956;3.106;2022-12-05T01:08:48;26.40;;;17.93;;
17917;SDS011;9084;50.956;3.106;2022-12-05T01:11:16;22.83;;;16.30;;
17917;SDS011;9084;50.956;3.106;2022-12-05T01:13:43;22.03;;;15.63;;
17917;SDS011;9084;50.956;3.106;2022-12-05T01:16:14;25.80;;;17.97;;
17917;SDS011;9084;50.956;3.106;2022-12-05T01:18:40;25.50;;;19.17;;
17917;SDS011;9084;50.956;3.106;2022-12-05T01:21:06;22.40;;;16.27;;
17917;SDS011;9084;50.956;3.106;2022-12-05T01:23:33;25.13;;;18.47;;
17917;SDS011;9084;50.956;3.106;2022-12-05T01:25:59;23.67;;;16.37;;
17917;SDS011;9084;50.956;3.106;2022-12-05T01:28:29;23.93;;;18.17;;
17917;SDS011;9084;50.956;3.106;2022-12-05T01:30:55;24.70;;;16.97;;
17917;SDS011;9084;50.956;3.106;2022-12-05T01:33:21;24.07;;;19.70;;
17917;SDS011;9084;50.956;3.106;2022-12-05T01:35:49;23.27;;;17.77;;
17917;SDS011;9084;50.956;3.106;2022-12-05T01:38:16;23.87;;;18.70;;
17917;SDS011;9084;50.956;3.106;2022-12-05T01:40:42;24.60;;;18.43;;
17917;SDS011;9084;50.956;3.106;2022-12-05T01:43:13;24.60;;;19.03;;
17917;SDS011;9084;50.956;3.106;2022-12-05T01:45:41;23.20;;;19.37;;
17917;SDS011;9084;50.956;3.106;2022-12-05T01:48:18;25.63;;;18.97;;
17917;SDS011;9084;50.956;3.106;2022-12-05T01:50:51;23.47;;;18.43;;
17917;SDS011;9084;50.956;3.106;2022-12-05T01:53:20;25.40;;;18.40;;
17917;SDS011;9084;50.956;3.106;2022-12-05T01:55:47;22.30;;;16.27;;
17917;SDS011;9084;50.956;3.106;2022-12-05T01:58:17;22.67;;;15.70;;
17917;SDS011;9084;50.956;3.106;2022-12-05T02:00:44;22.93;;;17.00;;
17917;SDS011;9084;50.956;3.106;2022-12-05T02:03:13;24.13;;;17.27;;
17917;SDS011;9084;50.956;3.106;2022-12-05T02:05:42;24.87;;;16.00;;
17917;SDS011;9084;50.956;3.106;2022-12-05T02:08:10;23.07;;;16.50;;
17917;SDS011;9084;50.956;3.106;2022-12-05T02:10:41;23.70;;;17.23;;
17917;SDS011;9084;50.956;3.106;2022-12-05T02:16:14;21.47;;;17.57;;
17917;SDS011;9084;50.956;3.106;2022-12-05T02:18:56;22.20;;;18.23;;
17917;SDS011;9084;50.956;3.106;2022-12-05T02:30:40;24.70;;;15.67;;
17917;SDS011;9084;50.956;3.106;2022-12-05T02:36:02;22.00;;;17.43;;
17917;SDS011;9084;50.956;3.106;2022-12-05T02:41:15;21.67;;;17.47;;
17917;SDS011;9084;50.956;3.106;2022-12-05T02:44:13;22.97;;;17.07;;
17917;SDS011;9084;50.956;3.106;2022-12-05T02:46:41;20.77;;;17.37;;
17917;SDS011;9084;50.956;3.106;2022-12-05T02:49:12;22.30;;;18.23;;
17917;SDS011;9084;50.956;3.106;2022-12-05T02:51:43;23.30;;;17.87;;
17917;SDS011;9084;50.956;3.106;2022-12-05T02:54:13;21.03;;;17.07;;
17917;SDS011;9084;50.956;3.106;2022-12-05T02:56:44;21.53;;;16.93;;
17917;SDS011;9084;50.956;3.106;2022-12-05T02:59:12;22.23;;;16.17;;
17917;SDS011;9084;50.956;3.106;2022-12-05T03:01:38;22.23;;;16.13;;
17917;SDS011;9084;50.956;3.106;2022-12-05T03:04:04;24.10;;;15.90;;
17917;SDS011;9084;50.956;3.106;2022-12-05T03:06:54;22.13;;;17.77;;
17917;SDS011;9084;50.956;3.106;2022-12-05T03:09:24;19.97;;;17.03;;
17917;SDS011;9084;50.956;3.106;2022-12-05T03:12:08;21.27;;;16.03;;
17917;SDS011;9084;50.956;3.106;2022-12-05T03:14:41;20.40;;;16.37;;
17917;SDS011;9084;50.956;3.106;2022-12-05T03:17:24;20.50;;;16.87;;
17917;SDS011;9084;50.956;3.106;2022-12-05T03:20:40;22.47;;;17.53;;
17917;SDS011;9084;50.956;3.106;2022-12-05T03:22:57;18.57;;;15.63;;
17917;SDS011;9084;50.956;3.106;2022-12-05T03:25:33;19.93;;;16.93;;
17917;SDS011;9084;50.956;3.106;2022-12-05T03:28:15;20.50;;;17.37;;
17917;SDS011;9084;50.956;3.106;2022-12-05T03:30:49;21.07;;;16.50;;
17917;SDS011;9084;50.956;3.106;2022-12-05T03:33:20;18.97;;;15.50;;
17917;SDS011;9084;50.956;3.106;2022-12-05T03:35:58;19.40;;;15.90;;
17917;SDS011;9084;50.956;3.106;2022-12-05T03:41:08;19.70;;;14.57;;
17917;SDS011;9084;50.956;3.106;2022-12-05T03:43:55;19.53;;;13.83;;
17917;SDS011;9084;50.956;3.106;2022-12-05T03:46:32;19.80;;;13.47;;
17917;SDS011;9084;50.956;3.106;2022-12-05T03:52:02;19.27;;;14.40;;
17917;SDS011;9084;50.956;3.106;2022-12-05T03:57:14;20.80;;;14.70;;
17917;SDS011;9084;50.956;3.106;2022-12-05T03:59:49;19.03;;;16.10;;
17917;SDS011;9084;50.956;3.106;2022-12-05T04:02:33;19.23;;;15.50;;
17917;SDS011;9084;50.956;3.106;2022-12-05T04:08:00;18.00;;;15.60;;
17917;SDS011;9084;50.956;3.106;2022-12-05T04:10:30;18.10;;;15.00;;
17917;SDS011;9084;50.956;3.106;2022-12-05T04:13:12;17.37;;;13.33;;
17917;SDS011;9084;50.956;3.106;2022-12-05T04:15:52;20.87;;;15.67;;
17917;SDS011;9084;50.956;3.106;2022-12-05T04:18:46;17.10;;;15.10;;
17917;SDS011;9084;50.956;3.106;2022-12-05T04:21:23;19.60;;;15.53;;
17917;SDS011;9084;50.956;3.106;2022-12-05T04:24:04;18.10;;;15.03;;
17917;SDS011;9084;50.956;3.106;2022-12-05T04:27:02;20.03;;;15.77;;
17917;SDS011;9084;50.956;3.106;2022-12-05T04:30:04;19.63;;;15.30;;
17917;SDS011;9084;50.956;3.106;2022-12-05T04:35:12;17.77;;;14.90;;
17917;SDS011;9084;50.956;3.106;2022-12-05T04:38:19;17.60;;;15.53;;
17917;SDS011;9084;50.956;3.106;2022-12-05T04:40:56;17.07;;;12.17;;
17917;SDS011;9084;50.956;3.106;2022-12-05T04:43:26;16.67;;;13.73;;
17917;SDS011;9084;50.956;3.106;2022-12-05T04:45:55;18.37;;;13.07;;
17917;SDS011;9084;50.956;3.106;2022-12-05T04:48:24;18.47;;;12.97;;
17917;SDS011;9084;50.956;3.106;2022-12-05T04:50:52;17.03;;;14.77;;
17917;SDS011;9084;50.956;3.106;2022-12-05T04:53:21;17.93;;;14.27;;
17917;SDS011;9084;50.956;3.106;2022-12-05T04:55:51;17.67;;;12.63;;
17917;SDS011;9084;50.956;3.106;2022-12-05T04:58:20;15.37;;;12.40;;
17917;SDS011;9084;50.956;3.106;2022-12-05T05:06:04;17.53;;;11.83;;
17917;SDS011;9084;50.956;3.106;2022-12-05T05:08:30;16.97;;;12.50;;
17917;SDS011;9084;50.956;3.106;2022-12-05T05:11:03;20.43;;;11.90;;
17917;SDS011;9084;50.956;3.106;2022-12-05T05:13:36;15.90;;;12.33;;
17917;SDS011;9084;50.956;3.106;2022-12-05T05:16:02;17.27;;;13.50;;
17917;SDS011;9084;50.956;3.106;2022-12-05T05:18:29;18.67;;;14.47;;
17917;SDS011;9084;50.956;3.106;2022-12-05T05:20:57;16.33;;;14.17;;
17917;SDS011;9084;50.956;3.106;2022-12-05T05:23:26;17.33;;;14.13;;
17917;SDS011;9084;50.956;3.106;2022-12-05T05:25:52;20.13;;;13.30;;
17917;SDS011;9084;50.956;3.106;2022-12-05T05:28:19;15.97;;;12.00;;
17917;SDS011;9084;50.956;3.106;2022-12-05T05:30:45;15.03;;;12.03;;
17917;SDS011;9084;50.956;3.106;2022-12-05T05:33:12;18.07;;;15.43;;
17917;SDS011;9084;50.956;3.106;2022-12-05T05:35:38;17.60;;;14.07;;
17917;SDS011;9084;50.956;3.106;2022-12-05T05:38:04;18.27;;;14.83;;
17917;SDS011;9084;50.956;3.106;2022-12-05T05:40:29;19.47;;;15.37;;
17917;SDS011;9084;50.956;3.106;2022-12-05T05:42:57;17.40;;;12.90;;
17917;SDS011;9084;50.956;3.106;2022-12-05T05:45:28;17.73;;;14.23;;
17917;SDS011;9084;50.956;3.106;2022-12-05T05:47:53;18.03;;;13.80;;
17917;SDS011;9084;50.956;3.106;2022-12-05T05:50:19;18.97;;;13.33;;
17917;SDS011;9084;50.956;3.106;2022-12-05T05:52:46;18.93;;;14.27;;
17917;SDS011;9084;50.956;3.106;2022-12-05T05:55:14;18.93;;;15.30;;
17917;SDS011;9084;50.956;3.106;2022-12-05T05:57:40;17.47;;;12.93;;
17917;SDS011;9084;50.956;3.106;2022-12-05T06:00:06;18.30;;;15.37;;
17917;SDS011;9084;50.956;3.106;2022-12-05T06:02:34;16.33;;;12.23;;
17917;SDS011;9084;50.956;3.106;2022-12-05T06:05:01;16.60;;;12.93;;
17917;SDS011;9084;50.956;3.106;2022-12-05T06:07:29;19.53;;;15.43;;
17917;SDS011;9084;50.956;3.106;2022-12-05T06:09:59;16.97;;;13.07;;
17917;SDS011;9084;50.956;3.106;2022-12-05T06:12:25;18.73;;;13.77;;
17917;SDS011;9084;50.956;3.106;2022-12-05T06:14:56;17.80;;;13.37;;
17917;SDS011;9084;50.956;3.106;2022-12-05T06:17:22;18.90;;;13.07;;
17917;SDS011;9084;50.956;3.106;2022-12-05T06:19:47;17.37;;;13.70;;
17917;SDS011;9084;50.956;3.106;2022-12-05T06:22:13;18.43;;;14.20;;
17917;SDS011;9084;50.956;3.106;2022-12-05T06:24:40;19.83;;;15.60;;
17917;SDS011;9084;50.956;3.106;2022-12-05T06:27:08;20.87;;;13.93;;
17917;SDS011;9084;50.956;3.106;2022-12-05T06:29:33;19.93;;;16.10;;
17917;SDS011;9084;50.956;3.106;2022-12-05T06:31:59;20.27;;;15.37;;
17917;SDS011;9084;50.956;3.106;2022-12-05T06:34:25;18.30;;;14.30;;
17917;SDS011;9084;50.956;3.106;2022-12-05T06:36:51;18.13;;;13.93;;
17917;SDS011;9084;50.956;3.106;2022-12-05T06:39:17;20.07;;;13.47;;
17917;SDS011;9084;50.956;3.106;2022-12-05T06:41:43;17.07;;;14.00;;
17917;SDS011;9084;50.956;3.106;2022-12-05T06:44:09;18.17;;;13.63;;
17917;SDS011;9084;50.956;3.106;2022-12-05T06:46:37;16.97;;;13.47;;
17917;SDS011;9084;50.956;3.106;2022-12-05T06:49:03;19.37;;;15.43;;
17917;SDS011;9084;50.956;3.106;2022-12-05T06:51:31;20.07;;;15.20;;
17917;SDS011;9084;50.956;3.106;2022-12-05T06:54:00;20.17;;;16.03;;
17917;SDS011;9084;50.956;3.106;2022-12-05T06:56:26;20.03;;;16.53;;
17917;SDS011;9084;50.956;3.106;2022-12-05T06:58:52;21.63;;;15.63;;
17917;SDS011;9084;50.956;3.106;2022-12-05T07:01:20;20.93;;;14.63;;
17917;SDS011;9084;50.956;3.106;2022-12-05T07:06:58;21.20;;;17.27;;
17917;SDS011;9084;50.956;3.106;2022-12-05T07:09:28;18.97;;;15.33;;
17917;SDS011;9084;50.956;3.106;2022-12-05T07:12:14;22.77;;;17.43;;
17917;SDS011;9084;50.956;3.106;2022-12-05T07:14:44;23.13;;;16.83;;
17917;SDS011;9084;50.956;3.106;2022-12-05T07:17:10;19.43;;;13.87;;
17917;SDS011;9084;50.956;3.106;2022-12-05T07:19:51;23.07;;;17.90;;
17917;SDS011;9084;50.956;3.106;2022-12-05T07:22:17;21.90;;;16.27;;
17917;SDS011;9084;50.956;3.106;2022-12-05T07:24:44;20.10;;;14.03;;
17917;SDS011;9084;50.956;3.106;2022-12-05T07:27:13;21.07;;;16.23;;
17917;SDS011;9084;50.956;3.106;2022-12-05T07:29:40;21.27;;;15.80;;
17917;SDS011;9084;50.956;3.106;2022-12-05T07:32:09;19.73;;;14.43;;
17917;SDS011;9084;50.956;3.106;2022-12-05T07:34:37;22.77;;;17.37;;
17917;SDS011;9084;50.956;3.106;2022-12-05T07:37:06;20.80;;;17.40;;
17917;SDS011;9084;50.956;3.106;2022-12-05T07:39:34;21.83;;;15.80;;
17917;SDS011;9084;50.956;3.106;2022-12-05T07:42:02;17.60;;;14.37;;
17917;SDS011;9084;50.956;3.106;2022-12-05T07:44:28;19.77;;;15.47;;
17917;SDS011;9084;50.956;3.106;2022-12-05T07:46:59;21.53;;;17.87;;
17917;SDS011;9084;50.956;3.106;2022-12-05T07:49:25;20.80;;;15.30;;
17917;SDS011;9084;50.956;3.106;2022-12-05T07:51:51;18.40;;;16.30;;
17917;SDS011;9084;50.956;3.106;2022-12-05T07:54:17;21.47;;;16.17;;
17917;SDS011;9084;50.956;3.106;2022-12-05T07:56:45;24.13;;;15.33;;
17917;SDS011;9084;50.956;3.106;2022-12-05T07:59:11;24.07;;;16.70;;
17917;SDS011;9084;50.956;3.106;2022-12-05T08:01:37;21.10;;;15.67;;
17917;SDS011;9084;50.956;3.106;2022-12-05T08:04:03;21.47;;;15.37;;
17917;SDS011;9084;50.956;3.106;2022-12-05T08:06:29;23.17;;;16.17;;
17917;SDS011;9084;50.956;3.106;2022-12-05T08:08:57;22.50;;;18.07;;
17917;SDS011;9084;50.956;3.106;2022-12-05T08:11:26;23.27;;;17.57;;
17917;SDS011;9084;50.956;3.106;2022-12-05T08:13:59;26.10;;;18.23;;
17917;SDS011;9084;50.956;3.106;2022-12-05T08:16:25;19.27;;;15.27;;
17917;SDS011;9084;50.956;3.106;2022-12-05T08:18:56;22.00;;;16.97;;
17917;SDS011;9084;50.956;3.106;2022-12-05T08:21:27;26.97;;;17.50;;
17917;SDS011;9084;50.956;3.106;2022-12-05T08:23:53;20.60;;;15.97;;
17917;SDS011;9084;50.956;3.106;2022-12-05T08:26:20;22.93;;;15.73;;
17917;SDS011;9084;50.956;3.106;2022-12-05T08:28:51;28.43;;;18.37;;
17917;SDS011;9084;50.956;3.106;2022-12-05T08:31:22;27.00;;;16.43;;
17917;SDS011;9084;50.956;3.106;2022-12-05T08:33:49;24.73;;;17.77;;
17917;SDS011;9084;50.956;3.106;2022-12-05T08:36:15;23.03;;;17.57;;
17917;SDS011;9084;50.956;3.106;2022-12-05T08:38:42;23.07;;;17.23;;
17917;SDS011;9084;50.956;3.106;2022-12-05T08:41:13;25.73;;;18.43;;
17917;SDS011;9084;50.956;3.106;2022-12-05T08:43:43;26.27;;;18.20;;
17917;SDS011;9084;50.956;3.106;2022-12-05T08:46:10;22.27;;;17.03;;
17917;SDS011;9084;50.956;3.106;2022-12-05T08:48:36;25.30;;;18.20;;
17917;SDS011;9084;50.956;3.106;2022-12-05T08:51:07;26.73;;;17.13;;
17917;SDS011;9084;50.956;3.106;2022-12-05T08:53:36;23.60;;;16.67;;
17917;SDS011;9084;50.956;3.106;2022-12-05T08:56:03;22.33;;;16.17;;
17917;SDS011;9084;50.956;3.106;2022-12-05T08:58:31;25.93;;;18.80;;
17917;SDS011;9084;50.956;3.106;2022-12-05T09:01:13;23.37;;;16.80;;
17917;SDS011;9084;50.956;3.106;2022-12-05T09:03:40;23.07;;;17.50;;
17917;SDS011;9084;50.956;3.106;2022-12-05T09:08:46;23.50;;;16.33;;
17917;SDS011;9084;50.956;3.106;2022-12-05T09:11:14;22.77;;;17.17;;
17917;SDS011;9084;50.956;3.106;2022-12-05T09:13:42;20.80;;;17.00;;
17917;SDS011;9084;50.956;3.106;2022-12-05T09:16:21;23.93;;;18.07;;
17917;SDS011;9084;50.956;3.106;2022-12-05T09:18:53;23.27;;;19.27;;
17917;SDS011;9084;50.956;3.106;2022-12-05T09:21:20;21.87;;;16.57;;
17917;SDS011;9084;50.956;3.106;2022-12-05T09:23:49;22.93;;;17.87;;
17917;SDS011;9084;50.956;3.106;2022-12-05T09:26:16;26.13;;;18.33;;
17917;SDS011;9084;50.956;3.106;2022-12-05T09:28:47;23.73;;;17.17;;
17917;SDS011;9084;50.956;3.106;2022-12-05T09:31:18;21.93;;;16.80;;
17917;SDS011;9084;50.956;3.106;2022-12-05T09:33:46;23.43;;;15.97;;
17917;SDS011;9084;50.956;3.106;2022-12-05T09:36:17;23.37;;;16.03;;
17917;SDS011;9084;50.956;3.106;2022-12-05T09:38:48;22.70;;;16.90;;
17917;SDS011;9084;50.956;3.106;2022-12-05T09:50:33;22.23;;;16.50;;
17917;SDS011;9084;50.956;3.106;2022-12-05T09:52:52;22.60;;;15.67;;
17917;SDS011;9084;50.956;3.106;2022-12-05T09:58:32;24.87;;;17.10;;
17917;SDS011;9084;50.956;3.106;2022-12-05T10:01:26;24.73;;;16.73;;
17917;SDS011;9084;50.956;3.106;2022-12-05T10:18:04;33.30;;;18.53;;
17917;SDS011;9084;50.956;3.106;2022-12-05T10:20:40;24.40;;;17.03;;
17917;SDS011;9084;50.956;3.106;2022-12-05T10:23:47;29.43;;;18.00;;
17917;SDS011;9084;50.956;3.106;2022-12-05T10:26:17;28.23;;;18.30;;
17917;SDS011;9084;50.956;3.106;2022-12-05T10:31:34;31.10;;;19.67;;
17917;SDS011;9084;50.956;3.106;2022-12-05T10:34:15;26.13;;;18.07;;
17917;SDS011;9084;50.956;3.106;2022-12-05T10:36:57;32.63;;;19.77;;
17917;SDS011;9084;50.956;3.106;2022-12-05T10:39:32;28.53;;;19.67;;
17917;SDS011;9084;50.956;3.106;2022-12-05T10:42:02;27.43;;;21.53;;
17917;SDS011;9084;50.956;3.106;2022-12-05T10:44:29;26.23;;;19.60;;
17917;SDS011;9084;50.956;3.106;2022-12-05T10:46:56;22.20;;;17.47;;
17917;SDS011;9084;50.956;3.106;2022-12-05T10:49:22;21.37;;;16.57;;
17917;SDS011;9084;50.956;3.106;2022-12-05T10:51:48;23.43;;;17.80;;
17917;SDS011;9084;50.956;3.106;2022-12-05T10:54:19;26.03;;;17.77;;
17917;SDS011;9084;50.956;3.106;2022-12-05T10:56:49;21.13;;;16.10;;
17917;SDS011;9084;50.956;3.106;2022-12-05T10:59:19;21.43;;;16.93;;
17917;SDS011;9084;50.956;3.106;2022-12-05T11:01:51;24.60;;;18.53;;
17917;SDS011;9084;50.956;3.106;2022-12-05T11:07:03;20.40;;;16.93;;
17917;SDS011;9084;50.956;3.106;2022-12-05T11:09:30;23.90;;;17.47;;
17917;SDS011;9084;50.956;3.106;2022-12-05T11:17:38;22.40;;;17.07;;
17917;SDS011;9084;50.956;3.106;2022-12-05T11:22:44;22.13;;;17.07;;
17917;SDS011;9084;50.956;3.106;2022-12-05T11:27:53;25.43;;;18.17;;
17917;SDS011;9084;50.956;3.106;2022-12-05T11:30:20;22.53;;;17.10;;
17917;SDS011;9084;50.956;3.106;2022-12-05T11:32:48;22.33;;;15.33;;
17917;SDS011;9084;50.956;3.106;2022-12-05T11:35:23;23.53;;;17.47;;
17917;SDS011;9084;50.956;3.106;2022-12-05T11:38:00;21.53;;;16.90;;
17917;SDS011;9084;50.956;3.106;2022-12-05T11:40:36;20.73;;;16.77;;
17917;SDS011;9084;50.956;3.106;2022-12-05T11:51:44;19.23;;;15.40;;
17917;SDS011;9084;50.956;3.106;2022-12-05T12:00:21;18.33;;;14.10;;
17917;SDS011;9084;50.956;3.106;2022-12-05T12:08:24;22.13;;;16.83;;
17917;SDS011;9084;50.956;3.106;2022-12-05T12:19:21;17.37;;;13.90;;
17917;SDS011;9084;50.956;3.106;2022-12-05T12:33:39;19.93;;;15.17;;
17917;SDS011;9084;50.956;3.106;2022-12-05T12:36:32;19.77;;;16.23;;
17917;SDS011;9084;50.956;3.106;2022-12-05T13:03:32;15.23;;;13.57;;
17917;SDS011;9084;50.956;3.106;2022-12-05T13:06:11;19.03;;;13.47;;
17917;SDS011;9084;50.956;3.106;2022-12-05T13:11:32;17.43;;;14.30;;
17917;SDS011;9084;50.956;3.106;2022-12-05T13:14:01;16.97;;;13.63;;
17917;SDS011;9084;50.956;3.106;2022-12-05T13:16:36;16.23;;;13.03;;
17917;SDS011;9084;50.956;3.106;2022-12-05T13:19:06;16.97;;;14.57;;
17917;SDS011;9084;50.956;3.106;2022-12-05T13:22:02;19.57;;;14.97;;
17917;SDS011;9084;50.956;3.106;2022-12-05T13:24:30;17.90;;;14.17;;
17917;SDS011;9084;50.956;3.106;2022-12-05T13:26:59;15.97;;;14.27;;
17917;SDS011;9084;50.956;3.106;2022-12-05T13:29:35;14.90;;;13.30;;
17917;SDS011;9084;50.956;3.106;2022-12-05T13:32:05;17.87;;;14.70;;
17917;SDS011;9084;50.956;3.106;2022-12-05T13:34:47;19.57;;;14.60;;
17917;SDS011;9084;50.956;3.106;2022-12-05T13:37:18;18.10;;;15.03;;
17917;SDS011;9084;50.956;3.106;2022-12-05T13:40:25;17.90;;;15.73;;
17917;SDS011;9084;50.956;3.106;2022-12-05T13:43:15;18.30;;;13.63;;
17917;SDS011;9084;50.956;3.106;2022-12-05T13:45:56;16.53;;;14.70;;
17917;SDS011;9084;50.956;3.106;2022-12-05T13:48:32;17.93;;;15.50;;
17917;SDS011;9084;50.956;3.106;2022-12-05T13:51:04;19.30;;;14.67;;
17917;SDS011;9084;50.956;3.106;2022-12-05T14:06:57;17.33;;;14.53;;
17917;SDS011;9084;50.956;3.106;2022-12-05T14:11:59;18.70;;;14.70;;
17917;SDS011;9084;50.956;3.106;2022-12-05T14:17:23;18.97;;;15.30;;
17917;SDS011;9084;50.956;3.106;2022-12-05T14:31:14;14.77;;;12.90;;
17917;SDS011;9084;50.956;3.106;2022-12-05T14:34:12;14.67;;;12.50;;
17917;SDS011;9084;50.956;3.106;2022-12-05T14:39:51;17.47;;;14.37;;
17917;SDS011;9084;50.956;3.106;2022-12-05T14:44:52;17.23;;;14.40;;
17917;SDS011;9084;50.956;3.106;2022-12-05T14:47:22;16.47;;;13.43;;
17917;SDS011;9084;50.956;3.106;2022-12-05T14:53:12;14.93;;;13.33;;
17917;SDS011;9084;50.956;3.106;2022-12-05T14:58:55;18.67;;;16.07;;
17917;SDS011;9084;50.956;3.106;2022-12-05T15:01:27;16.93;;;14.70;;
17917;SDS011;9084;50.956;3.106;2022-12-05T15:04:08;18.67;;;14.67;;
17917;SDS011;9084;50.956;3.106;2022-12-05T15:06:53;18.33;;;14.07;;
17917;SDS011;9084;50.956;3.106;2022-12-05T15:09:36;18.90;;;15.97;;
17917;SDS011;9084;50.956;3.106;2022-12-05T15:12:26;16.67;;;14.57;;
17917;SDS011;9084;50.956;3.106;2022-12-05T15:17:59;15.67;;;12.20;;
17917;SDS011;9084;50.956;3.106;2022-12-05T15:31:56;15.97;;;14.07;;
17917;SDS011;9084;50.956;3.106;2022-12-05T15:37:23;17.97;;;14.37;;
17917;SDS011;9084;50.956;3.106;2022-12-05T15:40:13;17.27;;;14.90;;
17917;SDS011;9084;50.956;3.106;2022-12-05T15:42:45;17.80;;;15.07;;
17917;SDS011;9084;50.956;3.106;2022-12-05T15:45:21;17.37;;;14.33;;
17917;SDS011;9084;50.956;3.106;2022-12-05T16:01:10;18.87;;;16.87;;
17917;SDS011;9084;50.956;3.106;2022-12-05T16:03:42;19.63;;;17.37;;
17917;SDS011;9084;50.956;3.106;2022-12-05T16:06:17;22.63;;;17.10;;
17917;SDS011;9084;50.956;3.106;2022-12-05T16:08:49;20.00;;;17.23;;
17917;SDS011;9084;50.956;3.106;2022-12-05T16:11:18;20.50;;;17.90;;
17917;SDS011;9084;50.956;3.106;2022-12-05T16:13:45;19.73;;;16.03;;
17917;SDS011;9084;50.956;3.106;2022-12-05T16:16:16;16.83;;;15.03;;
17917;SDS011;9084;50.956;3.106;2022-12-05T16:19:02;17.60;;;15.70;;
17917;SDS011;9084;50.956;3.106;2022-12-05T16:21:40;17.63;;;15.10;;
17917;SDS011;9084;50.956;3.106;2022-12-05T16:24:18;16.27;;;14.50;;
17917;SDS011;9084;50.956;3.106;2022-12-05T16:29:27;16.20;;;14.17;;
17917;SDS011;9084;50.956;3.106;2022-12-05T16:31:55;22.60;;;15.80;;
17917;SDS011;9084;50.956;3.106;2022-12-05T16:34:24;19.70;;;17.10;;
17917;SDS011;9084;50.956;3.106;2022-12-05T16:36:51;17.70;;;15.00;;
17917;SDS011;9084;50.956;3.106;2022-12-05T16:39:18;18.67;;;14.93;;
17917;SDS011;9084;50.956;3.106;2022-12-05T16:41:47;19.00;;;15.40;;
17917;SDS011;9084;50.956;3.106;2022-12-05T16:46:52;18.70;;;16.50;;
17917;SDS011;9084;50.956;3.106;2022-12-05T16:54:32;16.93;;;13.03;;
17917;SDS011;9084;50.956;3.106;2022-12-05T16:56:58;16.83;;;14.87;;
17917;SDS011;9084;50.956;3.106;2022-12-05T17:01:58;17.60;;;14.10;;
17917;SDS011;9084;50.956;3.106;2022-12-05T17:04:25;16.17;;;14.47;;
17917;SDS011;9084;50.956;3.106;2022-12-05T17:06:52;15.87;;;14.10;;
17917;SDS011;9084;50.956;3.106;2022-12-05T17:09:18;15.67;;;13.87;;
17917;SDS011;9084;50.956;3.106;2022-12-05T17:11:45;15.67;;;14.07;;
17917;SDS011;9084;50.956;3.106;2022-12-05T17:14:14;15.23;;;13.63;;
17917;SDS011;9084;50.956;3.106;2022-12-05T17:16:45;16.90;;;13.43;;
17917;SDS011;9084;50.956;3.106;2022-12-05T17:19:11;15.37;;;13.33;;
17917;SDS011;9084;50.956;3.106;2022-12-05T17:21:37;16.43;;;14.47;;
17917;SDS011;9084;50.956;3.106;2022-12-05T17:24:05;17.17;;;15.40;;
17917;SDS011;9084;50.956;3.106;2022-12-05T17:26:32;18.67;;;14.23;;
17917;SDS011;9084;50.956;3.106;2022-12-05T17:29:00;16.47;;;14.67;;
17917;SDS011;9084;50.956;3.106;2022-12-05T17:31:28;15.73;;;13.63;;
17917;SDS011;9084;50.956;3.106;2022-12-05T17:33:57;15.20;;;13.60;;
17917;SDS011;9084;50.956;3.106;2022-12-05T17:36:23;15.10;;;13.33;;
17917;SDS011;9084;50.956;3.106;2022-12-05T17:38:51;17.40;;;14.77;;
17917;SDS011;9084;50.956;3.106;2022-12-05T17:41:18;16.40;;;14.80;;
17917;SDS011;9084;50.956;3.106;2022-12-05T17:43:46;15.93;;;14.33;;
17917;SDS011;9084;50.956;3.106;2022-12-05T17:46:20;18.17;;;15.90;;
17917;SDS011;9084;50.956;3.106;2022-12-05T17:48:47;17.27;;;15.37;;
17917;SDS011;9084;50.956;3.106;2022-12-05T17:51:14;17.33;;;15.00;;
17917;SDS011;9084;50.956;3.106;2022-12-05T17:53:42;16.80;;;15.20;;
17917;SDS011;9084;50.956;3.106;2022-12-05T17:56:09;16.63;;;15.00;;
17917;SDS011;9084;50.956;3.106;2022-12-05T17:58:36;18.47;;;16.27;;
17917;SDS011;9084;50.956;3.106;2022-12-05T18:01:01;16.80;;;15.10;;
17917;SDS011;9084;50.956;3.106;2022-12-05T18:03:30;17.43;;;15.63;;
17917;SDS011;9084;50.956;3.106;2022-12-05T18:05:55;19.53;;;16.80;;
17917;SDS011;9084;50.956;3.106;2022-12-05T18:08:22;16.97;;;15.20;;
17917;SDS011;9084;50.956;3.106;2022-12-05T18:10:52;14.60;;;13.10;;
17917;SDS011;9084;50.956;3.106;2022-12-05T18:13:20;15.03;;;13.53;;
17917;SDS011;9084;50.956;3.106;2022-12-05T18:15:54;13.57;;;12.17;;
17917;SDS011;9084;50.956;3.106;2022-12-05T18:18:24;14.43;;;13.03;;
17917;SDS011;9084;50.956;3.106;2022-12-05T18:20:52;13.07;;;11.67;;
17917;SDS011;9084;50.956;3.106;2022-12-05T18:23:18;13.73;;;12.20;;
17917;SDS011;9084;50.956;3.106;2022-12-05T18:25:43;14.30;;;12.80;;
17917;SDS011;9084;50.956;3.106;2022-12-05T18:28:11;13.90;;;12.43;;
17917;SDS011;9084;50.956;3.106;2022-12-05T18:30:37;12.57;;;11.27;;
17917;SDS011;9084;50.956;3.106;2022-12-05T18:33:03;14.00;;;12.57;;
17917;SDS011;9084;50.956;3.106;2022-12-05T18:35:29;13.97;;;12.47;;
17917;SDS011;9084;50.956;3.106;2022-12-05T18:38:08;15.10;;;11.30;;
17917;SDS011;9084;50.956;3.106;2022-12-05T18:40:35;12.77;;;11.17;;
17917;SDS011;9084;50.956;3.106;2022-12-05T18:43:03;13.83;;;10.30;;
17917;SDS011;9084;50.956;3.106;2022-12-05T18:45:29;12.30;;;11.10;;
17917;SDS011;9084;50.956;3.106;2022-12-05T18:47:57;13.13;;;11.77;;
17917;SDS011;9084;50.956;3.106;2022-12-05T18:50:23;12.93;;;11.10;;
17917;SDS011;9084;50.956;3.106;2022-12-05T18:52:49;13.33;;;12.03;;
17917;SDS011;9084;50.956;3.106;2022-12-05T18:55:15;15.63;;;13.97;;